<?xml version="1.0" encoding="UTF-8" standalone="no" ?>
<gpx xmlns="http://www.topografix.com/GPX/1/1" xmlns:xsi="http://www.w3.org/2001/XMLSchema-instance" xsi:schemaLocation="http://www.topografix.com/GPX/1/1 http://www.topografix.com/GPX/1/1/gpx.xsd" version="1.1" creator="VisuGPX - https://www.visugpx.com">
  <metadata>
    <name>Tourbieres de Montselgues</name>
    <desc><![CDATA[A la découverte de la drosera plante (carnivore) dans le milieu acide des tourbières, privilégier Juin ou Juillet pour la flore.
]]></desc>
  </metadata>
  <trk>
    <name><![CDATA[2014-05-01- Tourbieres Montselgues]]></name>
    <trkseg>
      <trkpt lat="44.52408" lon="4.00601">
        <ele>874</ele>
        <time>2014-05-01T07:38:41Z</time>
      </trkpt>
      <trkpt lat="44.52406" lon="4.00598">
        <ele>879</ele>
        <time>2014-05-01T07:38:42Z</time>
      </trkpt>
      <trkpt lat="44.52384" lon="4.00569">
        <ele>952</ele>
        <time>2014-05-01T07:38:55Z</time>
      </trkpt>
      <trkpt lat="44.52371" lon="4.00552">
        <ele>994</ele>
        <time>2014-05-01T07:39:10Z</time>
      </trkpt>
      <trkpt lat="44.52357" lon="4.00538">
        <ele>1030</ele>
        <time>2014-05-01T07:39:14Z</time>
      </trkpt>
      <trkpt lat="44.5234" lon="4.00529">
        <ele>1038</ele>
        <time>2014-05-01T07:39:31Z</time>
      </trkpt>
      <trkpt lat="44.52323" lon="4.00524">
        <ele>1029</ele>
        <time>2014-05-01T07:39:51Z</time>
      </trkpt>
      <trkpt lat="44.52322" lon="4.00523">
        <ele>1030</ele>
        <time>2014-05-01T07:39:52Z</time>
      </trkpt>
      <trkpt lat="44.52292" lon="4.00518">
        <ele>1035</ele>
        <time>2014-05-01T07:40:20Z</time>
      </trkpt>
      <trkpt lat="44.52274" lon="4.00516">
        <ele>1034</ele>
        <time>2014-05-01T07:40:39Z</time>
      </trkpt>
      <trkpt lat="44.52258" lon="4.00507">
        <ele>1038</ele>
        <time>2014-05-01T07:40:54Z</time>
      </trkpt>
      <trkpt lat="44.52257" lon="4.00507">
        <ele>1038</ele>
        <time>2014-05-01T07:40:55Z</time>
      </trkpt>
      <trkpt lat="44.52223" lon="4.00494">
        <ele>1040</ele>
        <time>2014-05-01T07:41:24Z</time>
      </trkpt>
      <trkpt lat="44.52206" lon="4.00493">
        <ele>1042</ele>
        <time>2014-05-01T07:41:43Z</time>
      </trkpt>
      <trkpt lat="44.52189" lon="4.00497">
        <ele>1044</ele>
        <time>2014-05-01T07:41:58Z</time>
      </trkpt>
      <trkpt lat="44.52188" lon="4.00497">
        <ele>1044</ele>
        <time>2014-05-01T07:41:59Z</time>
      </trkpt>
      <trkpt lat="44.52155" lon="4.00507">
        <ele>1042</ele>
        <time>2014-05-01T07:42:31Z</time>
      </trkpt>
      <trkpt lat="44.5214" lon="4.00496">
        <ele>1040</ele>
        <time>2014-05-01T07:42:50Z</time>
      </trkpt>
      <trkpt lat="44.52126" lon="4.00479">
        <ele>1044</ele>
        <time>2014-05-01T07:43:08Z</time>
      </trkpt>
      <trkpt lat="44.52126" lon="4.00479">
        <ele>1044</ele>
        <time>2014-05-01T07:43:09Z</time>
      </trkpt>
      <trkpt lat="44.52101" lon="4.00446">
        <ele>1056</ele>
        <time>2014-05-01T07:43:42Z</time>
      </trkpt>
      <trkpt lat="44.52088" lon="4.00429">
        <ele>1060</ele>
        <time>2014-05-01T07:43:58Z</time>
      </trkpt>
      <trkpt lat="44.52076" lon="4.00412">
        <ele>1062</ele>
        <time>2014-05-01T07:44:13Z</time>
      </trkpt>
      <trkpt lat="44.52076" lon="4.00411">
        <ele>1062</ele>
        <time>2014-05-01T07:44:14Z</time>
      </trkpt>
      <trkpt lat="44.52052" lon="4.00377">
        <ele>1058</ele>
        <time>2014-05-01T07:44:45Z</time>
      </trkpt>
      <trkpt lat="44.5204" lon="4.00359">
        <ele>1056</ele>
        <time>2014-05-01T07:45:01Z</time>
      </trkpt>
      <trkpt lat="44.52027" lon="4.00344">
        <ele>1054</ele>
        <time>2014-05-01T07:45:18Z</time>
      </trkpt>
      <trkpt lat="44.52026" lon="4.00343">
        <ele>1054</ele>
        <time>2014-05-01T07:45:19Z</time>
      </trkpt>
      <trkpt lat="44.51998" lon="4.00316">
        <ele>1054</ele>
        <time>2014-05-01T07:45:51Z</time>
      </trkpt>
      <trkpt lat="44.51982" lon="4.00309">
        <ele>1055</ele>
        <time>2014-05-01T07:46:06Z</time>
      </trkpt>
      <trkpt lat="44.51966" lon="4.00314">
        <ele>1054</ele>
        <time>2014-05-01T07:46:29Z</time>
      </trkpt>
      <trkpt lat="44.51965" lon="4.00315">
        <ele>1053</ele>
        <time>2014-05-01T07:46:30Z</time>
      </trkpt>
      <trkpt lat="44.51948" lon="4.0032">
        <ele>1052</ele>
        <time>2014-05-01T07:54:36Z</time>
      </trkpt>
      <trkpt lat="44.51914" lon="4.00324">
        <ele>1053</ele>
        <time>2014-05-01T07:55:16Z</time>
      </trkpt>
      <trkpt lat="44.51897" lon="4.00328">
        <ele>1052</ele>
        <time>2014-05-01T07:55:34Z</time>
      </trkpt>
      <trkpt lat="44.5188" lon="4.00333">
        <ele>1053</ele>
        <time>2014-05-01T07:55:51Z</time>
      </trkpt>
      <trkpt lat="44.51879" lon="4.00333">
        <ele>1053</ele>
        <time>2014-05-01T07:55:52Z</time>
      </trkpt>
      <trkpt lat="44.51845" lon="4.00342">
        <ele>1053</ele>
        <time>2014-05-01T07:56:30Z</time>
      </trkpt>
      <trkpt lat="44.51828" lon="4.00342">
        <ele>1051</ele>
        <time>2014-05-01T07:56:52Z</time>
      </trkpt>
      <trkpt lat="44.51827" lon="4.00342">
        <ele>1051</ele>
        <time>2014-05-01T07:56:53Z</time>
      </trkpt>
      <trkpt lat="44.51794" lon="4.00352">
        <ele>1048</ele>
        <time>2014-05-01T07:57:30Z</time>
      </trkpt>
      <trkpt lat="44.51777" lon="4.00358">
        <ele>1049</ele>
        <time>2014-05-01T07:57:46Z</time>
      </trkpt>
      <trkpt lat="44.5176" lon="4.00364">
        <ele>1048</ele>
        <time>2014-05-01T07:58:03Z</time>
      </trkpt>
      <trkpt lat="44.51759" lon="4.00364">
        <ele>1048</ele>
        <time>2014-05-01T07:58:04Z</time>
      </trkpt>
      <trkpt lat="44.51726" lon="4.0038">
        <ele>1049</ele>
        <time>2014-05-01T07:58:34Z</time>
      </trkpt>
      <trkpt lat="44.5171" lon="4.0039">
        <ele>1050</ele>
        <time>2014-05-01T07:58:53Z</time>
      </trkpt>
      <trkpt lat="44.51694" lon="4.00395">
        <ele>1051</ele>
        <time>2014-05-01T07:59:08Z</time>
      </trkpt>
      <trkpt lat="44.51692" lon="4.00396">
        <ele>1051</ele>
        <time>2014-05-01T07:59:09Z</time>
      </trkpt>
      <trkpt lat="44.51659" lon="4.00399">
        <ele>1055</ele>
        <time>2014-05-01T07:59:39Z</time>
      </trkpt>
      <trkpt lat="44.51642" lon="4.00396">
        <ele>1057</ele>
        <time>2014-05-01T07:59:58Z</time>
      </trkpt>
      <trkpt lat="44.51626" lon="4.00408">
        <ele>1058</ele>
        <time>2014-05-01T08:00:21Z</time>
      </trkpt>
      <trkpt lat="44.51626" lon="4.00409">
        <ele>1058</ele>
        <time>2014-05-01T08:00:22Z</time>
      </trkpt>
      <trkpt lat="44.51607" lon="4.00449">
        <ele>1058</ele>
        <time>2014-05-01T08:01:02Z</time>
      </trkpt>
      <trkpt lat="44.51591" lon="4.00457">
        <ele>1058</ele>
        <time>2014-05-01T08:01:16Z</time>
      </trkpt>
      <trkpt lat="44.51578" lon="4.00473">
        <ele>1059</ele>
        <time>2014-05-01T08:01:34Z</time>
      </trkpt>
      <trkpt lat="44.51577" lon="4.00474">
        <ele>1059</ele>
        <time>2014-05-01T08:01:35Z</time>
      </trkpt>
      <trkpt lat="44.51568" lon="4.0052">
        <ele>1063</ele>
        <time>2014-05-01T08:02:24Z</time>
      </trkpt>
      <trkpt lat="44.51558" lon="4.00539">
        <ele>1062</ele>
        <time>2014-05-01T08:02:43Z</time>
      </trkpt>
      <trkpt lat="44.51557" lon="4.0054">
        <ele>1062</ele>
        <time>2014-05-01T08:02:44Z</time>
      </trkpt>
      <trkpt lat="44.51539" lon="4.0058">
        <ele>1066</ele>
        <time>2014-05-01T08:10:47Z</time>
      </trkpt>
      <trkpt lat="44.51538" lon="4.00581">
        <ele>1066</ele>
        <time>2014-05-01T08:10:48Z</time>
      </trkpt>
      <trkpt lat="44.51527" lon="4.00623">
        <ele>1065</ele>
        <time>2014-05-01T08:11:31Z</time>
      </trkpt>
      <trkpt lat="44.51521" lon="4.00646">
        <ele>1064</ele>
        <time>2014-05-01T08:11:45Z</time>
      </trkpt>
      <trkpt lat="44.51513" lon="4.00666">
        <ele>1063</ele>
        <time>2014-05-01T08:11:59Z</time>
      </trkpt>
      <trkpt lat="44.51511" lon="4.00669">
        <ele>1063</ele>
        <time>2014-05-01T08:12:00Z</time>
      </trkpt>
      <trkpt lat="44.51492" lon="4.00705">
        <ele>1060</ele>
        <time>2014-05-01T08:12:33Z</time>
      </trkpt>
      <trkpt lat="44.51481" lon="4.00725">
        <ele>1059</ele>
        <time>2014-05-01T08:12:53Z</time>
      </trkpt>
      <trkpt lat="44.5147" lon="4.00744">
        <ele>1059</ele>
        <time>2014-05-01T08:13:15Z</time>
      </trkpt>
      <trkpt lat="44.5147" lon="4.00744">
        <ele>1059</ele>
        <time>2014-05-01T08:13:16Z</time>
      </trkpt>
      <trkpt lat="44.51449" lon="4.00783">
        <ele>1058</ele>
        <time>2014-05-01T08:14:00Z</time>
      </trkpt>
      <trkpt lat="44.51441" lon="4.00806">
        <ele>1059</ele>
        <time>2014-05-01T08:14:36Z</time>
      </trkpt>
      <trkpt lat="44.51441" lon="4.00806">
        <ele>1058</ele>
        <time>2014-05-01T08:14:37Z</time>
      </trkpt>
      <trkpt lat="44.51439" lon="4.00852">
        <ele>1061</ele>
        <time>2014-05-01T08:15:36Z</time>
      </trkpt>
      <trkpt lat="44.51443" lon="4.00876">
        <ele>1056</ele>
        <time>2014-05-01T08:16:03Z</time>
      </trkpt>
      <trkpt lat="44.51443" lon="4.00877">
        <ele>1056</ele>
        <time>2014-05-01T08:16:04Z</time>
      </trkpt>
      <trkpt lat="44.5143" lon="4.00921">
        <ele>1058</ele>
        <time>2014-05-01T08:16:42Z</time>
      </trkpt>
      <trkpt lat="44.5142" lon="4.0094">
        <ele>1063</ele>
        <time>2014-05-01T08:16:56Z</time>
      </trkpt>
      <trkpt lat="44.5141" lon="4.0096">
        <ele>1061</ele>
        <time>2014-05-01T08:17:15Z</time>
      </trkpt>
      <trkpt lat="44.51409" lon="4.00962">
        <ele>1060</ele>
        <time>2014-05-01T08:17:16Z</time>
      </trkpt>
      <trkpt lat="44.51389" lon="4.00991">
        <ele>1061</ele>
        <time>2014-05-01T08:17:37Z</time>
      </trkpt>
      <trkpt lat="44.51375" lon="4.01004">
        <ele>1065</ele>
        <time>2014-05-01T08:17:41Z</time>
      </trkpt>
      <trkpt lat="44.51358" lon="4.0101">
        <ele>1058</ele>
        <time>2014-05-01T08:17:59Z</time>
      </trkpt>
      <trkpt lat="44.5134" lon="4.01013">
        <ele>1068</ele>
        <time>2014-05-01T08:18:19Z</time>
      </trkpt>
      <trkpt lat="44.5134" lon="4.01014">
        <ele>1068</ele>
        <time>2014-05-01T08:18:20Z</time>
      </trkpt>
      <trkpt lat="44.51314" lon="4.01042">
        <ele>1064</ele>
        <time>2014-05-01T08:19:36Z</time>
      </trkpt>
      <trkpt lat="44.51313" lon="4.01043">
        <ele>1064</ele>
        <time>2014-05-01T08:19:37Z</time>
      </trkpt>
      <trkpt lat="44.5129" lon="4.01071">
        <ele>1064</ele>
        <time>2014-05-01T08:19:58Z</time>
      </trkpt>
      <trkpt lat="44.51273" lon="4.01081">
        <ele>1065</ele>
        <time>2014-05-01T08:20:10Z</time>
      </trkpt>
      <trkpt lat="44.51256" lon="4.01079">
        <ele>1071</ele>
        <time>2014-05-01T08:20:34Z</time>
      </trkpt>
      <trkpt lat="44.51244" lon="4.01098">
        <ele>1078</ele>
        <time>2014-05-01T08:20:59Z</time>
      </trkpt>
      <trkpt lat="44.51244" lon="4.01099">
        <ele>1078</ele>
        <time>2014-05-01T08:21:00Z</time>
      </trkpt>
      <trkpt lat="44.51212" lon="4.01108">
        <ele>1068</ele>
        <time>2014-05-01T08:21:42Z</time>
      </trkpt>
      <trkpt lat="44.51211" lon="4.01084">
        <ele>1064</ele>
        <time>2014-05-01T08:22:05Z</time>
      </trkpt>
      <trkpt lat="44.51211" lon="4.01083">
        <ele>1064</ele>
        <time>2014-05-01T08:22:06Z</time>
      </trkpt>
      <trkpt lat="44.5121" lon="4.01035">
        <ele>1075</ele>
        <time>2014-05-01T08:22:42Z</time>
      </trkpt>
      <trkpt lat="44.51211" lon="4.0101">
        <ele>1073</ele>
        <time>2014-05-01T08:23:04Z</time>
      </trkpt>
      <trkpt lat="44.51214" lon="4.00987">
        <ele>1070</ele>
        <time>2014-05-01T08:23:25Z</time>
      </trkpt>
      <trkpt lat="44.51214" lon="4.00985">
        <ele>1072</ele>
        <time>2014-05-01T08:23:26Z</time>
      </trkpt>
      <trkpt lat="44.51219" lon="4.00941">
        <ele>1074</ele>
        <time>2014-05-01T08:24:01Z</time>
      </trkpt>
      <trkpt lat="44.51225" lon="4.00917">
        <ele>1067</ele>
        <time>2014-05-01T08:24:24Z</time>
      </trkpt>
      <trkpt lat="44.5121" lon="4.00904">
        <ele>1062</ele>
        <time>2014-05-01T08:25:14Z</time>
      </trkpt>
      <trkpt lat="44.51209" lon="4.00904">
        <ele>1062</ele>
        <time>2014-05-01T08:25:15Z</time>
      </trkpt>
      <trkpt lat="44.51176" lon="4.00922">
        <ele>1060</ele>
        <time>2014-05-01T08:25:53Z</time>
      </trkpt>
      <trkpt lat="44.5116" lon="4.00928">
        <ele>1060</ele>
        <time>2014-05-01T08:26:09Z</time>
      </trkpt>
      <trkpt lat="44.51143" lon="4.00931">
        <ele>1061</ele>
        <time>2014-05-01T08:26:29Z</time>
      </trkpt>
      <trkpt lat="44.51142" lon="4.00931">
        <ele>1061</ele>
        <time>2014-05-01T08:26:30Z</time>
      </trkpt>
      <trkpt lat="44.51119" lon="4.00962">
        <ele>1068</ele>
        <time>2014-05-01T08:31:46Z</time>
      </trkpt>
      <trkpt lat="44.51118" lon="4.00963">
        <ele>1069</ele>
        <time>2014-05-01T08:31:47Z</time>
      </trkpt>
      <trkpt lat="44.51128" lon="4.00941">
        <ele>1060</ele>
        <time>2014-05-01T08:37:40Z</time>
      </trkpt>
      <trkpt lat="44.51132" lon="4.00892">
        <ele>1053</ele>
        <time>2014-05-01T08:38:40Z</time>
      </trkpt>
      <trkpt lat="44.51132" lon="4.00891">
        <ele>1053</ele>
        <time>2014-05-01T08:38:41Z</time>
      </trkpt>
      <trkpt lat="44.51131" lon="4.00867">
        <ele>1062</ele>
        <time>2014-05-01T08:40:03Z</time>
      </trkpt>
      <trkpt lat="44.51135" lon="4.00842">
        <ele>1057</ele>
        <time>2014-05-01T08:47:01Z</time>
      </trkpt>
      <trkpt lat="44.51109" lon="4.00813">
        <ele>1059</ele>
        <time>2014-05-01T08:49:09Z</time>
      </trkpt>
      <trkpt lat="44.51108" lon="4.00813">
        <ele>1059</ele>
        <time>2014-05-01T08:49:10Z</time>
      </trkpt>
      <trkpt lat="44.51093" lon="4.008">
        <ele>1056</ele>
        <time>2014-05-01T09:11:52Z</time>
      </trkpt>
      <trkpt lat="44.51083" lon="4.00779">
        <ele>1058</ele>
        <time>2014-05-01T09:13:02Z</time>
      </trkpt>
      <trkpt lat="44.51067" lon="4.0077">
        <ele>1055</ele>
        <time>2014-05-01T09:14:24Z</time>
      </trkpt>
      <trkpt lat="44.51049" lon="4.00765">
        <ele>1053</ele>
        <time>2014-05-01T09:15:45Z</time>
      </trkpt>
      <trkpt lat="44.51036" lon="4.00736">
        <ele>1051</ele>
        <time>2014-05-01T09:17:34Z</time>
      </trkpt>
      <trkpt lat="44.51036" lon="4.00735">
        <ele>1051</ele>
        <time>2014-05-01T09:17:35Z</time>
      </trkpt>
      <trkpt lat="44.51023" lon="4.0069">
        <ele>1048</ele>
        <time>2014-05-01T09:18:39Z</time>
      </trkpt>
      <trkpt lat="44.51023" lon="4.00689">
        <ele>1048</ele>
        <time>2014-05-01T09:18:40Z</time>
      </trkpt>
      <trkpt lat="44.51032" lon="4.00644">
        <ele>1046</ele>
        <time>2014-05-01T09:19:30Z</time>
      </trkpt>
      <trkpt lat="44.51041" lon="4.00623">
        <ele>1046</ele>
        <time>2014-05-01T09:19:53Z</time>
      </trkpt>
      <trkpt lat="44.51042" lon="4.00622">
        <ele>1046</ele>
        <time>2014-05-01T09:19:54Z</time>
      </trkpt>
      <trkpt lat="44.51064" lon="4.00585">
        <ele>1045</ele>
        <time>2014-05-01T09:20:39Z</time>
      </trkpt>
      <trkpt lat="44.51078" lon="4.00571">
        <ele>1044</ele>
        <time>2014-05-01T09:21:02Z</time>
      </trkpt>
      <trkpt lat="44.51079" lon="4.0057">
        <ele>1044</ele>
        <time>2014-05-01T09:21:03Z</time>
      </trkpt>
      <trkpt lat="44.51092" lon="4.00555">
        <ele>1046</ele>
        <time>2014-05-01T09:37:05Z</time>
      </trkpt>
      <trkpt lat="44.51106" lon="4.00537">
        <ele>1046</ele>
        <time>2014-05-01T09:41:58Z</time>
      </trkpt>
      <trkpt lat="44.51113" lon="4.00489">
        <ele>1045</ele>
        <time>2014-05-01T09:42:55Z</time>
      </trkpt>
      <trkpt lat="44.51117" lon="4.00465">
        <ele>1046</ele>
        <time>2014-05-01T09:43:14Z</time>
      </trkpt>
      <trkpt lat="44.51117" lon="4.00463">
        <ele>1047</ele>
        <time>2014-05-01T09:43:15Z</time>
      </trkpt>
      <trkpt lat="44.5113" lon="4.00419">
        <ele>1043</ele>
        <time>2014-05-01T09:43:58Z</time>
      </trkpt>
      <trkpt lat="44.51128" lon="4.00395">
        <ele>1048</ele>
        <time>2014-05-01T09:44:34Z</time>
      </trkpt>
      <trkpt lat="44.51128" lon="4.00394">
        <ele>1048</ele>
        <time>2014-05-01T09:44:35Z</time>
      </trkpt>
      <trkpt lat="44.51132" lon="4.0037">
        <ele>1042</ele>
        <time>2014-05-01T09:46:37Z</time>
      </trkpt>
      <trkpt lat="44.51131" lon="4.00322">
        <ele>1042</ele>
        <time>2014-05-01T09:48:15Z</time>
      </trkpt>
      <trkpt lat="44.51131" lon="4.00321">
        <ele>1042</ele>
        <time>2014-05-01T09:48:16Z</time>
      </trkpt>
      <trkpt lat="44.51151" lon="4.00282">
        <ele>1039</ele>
        <time>2014-05-01T09:49:23Z</time>
      </trkpt>
      <trkpt lat="44.51152" lon="4.00281">
        <ele>1040</ele>
        <time>2014-05-01T09:49:24Z</time>
      </trkpt>
      <trkpt lat="44.51167" lon="4.0024">
        <ele>1036</ele>
        <time>2014-05-01T09:50:12Z</time>
      </trkpt>
      <trkpt lat="44.51175" lon="4.00217">
        <ele>1033</ele>
        <time>2014-05-01T09:50:39Z</time>
      </trkpt>
      <trkpt lat="44.51175" lon="4.00217">
        <ele>1033</ele>
        <time>2014-05-01T09:50:40Z</time>
      </trkpt>
      <trkpt lat="44.51191" lon="4.00174">
        <ele>1031</ele>
        <time>2014-05-01T09:51:33Z</time>
      </trkpt>
      <trkpt lat="44.51201" lon="4.00153">
        <ele>1034</ele>
        <time>2014-05-01T09:54:10Z</time>
      </trkpt>
      <trkpt lat="44.51201" lon="4.00153">
        <ele>1034</ele>
        <time>2014-05-01T09:54:11Z</time>
      </trkpt>
      <trkpt lat="44.51228" lon="4.00123">
        <ele>1032</ele>
        <time>2014-05-01T09:55:07Z</time>
      </trkpt>
      <trkpt lat="44.51227" lon="4.00099">
        <ele>1033</ele>
        <time>2014-05-01T09:55:29Z</time>
      </trkpt>
      <trkpt lat="44.51226" lon="4.00097">
        <ele>1032</ele>
        <time>2014-05-01T09:55:30Z</time>
      </trkpt>
      <trkpt lat="44.51241" lon="4.00057">
        <ele>1033</ele>
        <time>2014-05-01T09:56:06Z</time>
      </trkpt>
      <trkpt lat="44.51255" lon="4.00041">
        <ele>1033</ele>
        <time>2014-05-01T09:56:25Z</time>
      </trkpt>
      <trkpt lat="44.51266" lon="4.00023">
        <ele>1034</ele>
        <time>2014-05-01T09:56:43Z</time>
      </trkpt>
      <trkpt lat="44.51266" lon="4.00022">
        <ele>1034</ele>
        <time>2014-05-01T09:56:44Z</time>
      </trkpt>
      <trkpt lat="44.5129" lon="3.99985">
        <ele>1036</ele>
        <time>2014-05-01T09:57:22Z</time>
      </trkpt>
      <trkpt lat="44.51304" lon="3.99971">
        <ele>1036</ele>
        <time>2014-05-01T09:57:42Z</time>
      </trkpt>
      <trkpt lat="44.51317" lon="3.99954">
        <ele>1036</ele>
        <time>2014-05-01T09:58:12Z</time>
      </trkpt>
      <trkpt lat="44.51318" lon="3.99952">
        <ele>1036</ele>
        <time>2014-05-01T09:58:13Z</time>
      </trkpt>
      <trkpt lat="44.51283" lon="3.99943">
        <ele>1032</ele>
        <time>2014-05-01T09:59:06Z</time>
      </trkpt>
      <trkpt lat="44.51266" lon="3.99939">
        <ele>1032</ele>
        <time>2014-05-01T09:59:24Z</time>
      </trkpt>
      <trkpt lat="44.51265" lon="3.99939">
        <ele>1032</ele>
        <time>2014-05-01T09:59:25Z</time>
      </trkpt>
      <trkpt lat="44.51232" lon="3.99927">
        <ele>1030</ele>
        <time>2014-05-01T10:00:13Z</time>
      </trkpt>
      <trkpt lat="44.51215" lon="3.99921">
        <ele>1028</ele>
        <time>2014-05-01T10:00:34Z</time>
      </trkpt>
      <trkpt lat="44.51214" lon="3.99921">
        <ele>1028</ele>
        <time>2014-05-01T10:00:35Z</time>
      </trkpt>
      <trkpt lat="44.51182" lon="3.99906">
        <ele>1026</ele>
        <time>2014-05-01T10:01:11Z</time>
      </trkpt>
      <trkpt lat="44.51168" lon="3.9989">
        <ele>1027</ele>
        <time>2014-05-01T10:01:34Z</time>
      </trkpt>
      <trkpt lat="44.51155" lon="3.99874">
        <ele>1026</ele>
        <time>2014-05-01T10:01:56Z</time>
      </trkpt>
      <trkpt lat="44.51154" lon="3.99874">
        <ele>1026</ele>
        <time>2014-05-01T10:01:57Z</time>
      </trkpt>
      <trkpt lat="44.5112" lon="3.99872">
        <ele>1022</ele>
        <time>2014-05-01T10:03:39Z</time>
      </trkpt>
      <trkpt lat="44.51119" lon="3.99871">
        <ele>1022</ele>
        <time>2014-05-01T10:03:40Z</time>
      </trkpt>
      <trkpt lat="44.51086" lon="3.99857">
        <ele>1022</ele>
        <time>2014-05-01T10:04:26Z</time>
      </trkpt>
      <trkpt lat="44.51073" lon="3.99842">
        <ele>1018</ele>
        <time>2014-05-01T10:06:19Z</time>
      </trkpt>
      <trkpt lat="44.51072" lon="3.99841">
        <ele>1017</ele>
        <time>2014-05-01T10:06:20Z</time>
      </trkpt>
      <trkpt lat="44.51088" lon="3.99855">
        <ele>1020</ele>
        <time>2014-05-01T10:07:40Z</time>
      </trkpt>
      <trkpt lat="44.5112" lon="3.99872">
        <ele>1023</ele>
        <time>2014-05-01T10:08:36Z</time>
      </trkpt>
      <trkpt lat="44.51137" lon="3.99876">
        <ele>1024</ele>
        <time>2014-05-01T10:09:06Z</time>
      </trkpt>
      <trkpt lat="44.51138" lon="3.99876">
        <ele>1024</ele>
        <time>2014-05-01T10:09:07Z</time>
      </trkpt>
      <trkpt lat="44.51155" lon="3.99877">
        <ele>1028</ele>
        <time>2014-05-01T10:10:20Z</time>
      </trkpt>
      <trkpt lat="44.51169" lon="3.99894">
        <ele>1024</ele>
        <time>2014-05-01T10:16:12Z</time>
      </trkpt>
      <trkpt lat="44.51199" lon="3.99918">
        <ele>1025</ele>
        <time>2014-05-01T10:17:02Z</time>
      </trkpt>
      <trkpt lat="44.51216" lon="3.99923">
        <ele>1024</ele>
        <time>2014-05-01T10:17:26Z</time>
      </trkpt>
      <trkpt lat="44.51217" lon="3.99923">
        <ele>1024</ele>
        <time>2014-05-01T10:17:27Z</time>
      </trkpt>
      <trkpt lat="44.5125" lon="3.99936">
        <ele>1028</ele>
        <time>2014-05-01T10:18:07Z</time>
      </trkpt>
      <trkpt lat="44.51267" lon="3.99939">
        <ele>1030</ele>
        <time>2014-05-01T10:18:31Z</time>
      </trkpt>
      <trkpt lat="44.51268" lon="3.99939">
        <ele>1030</ele>
        <time>2014-05-01T10:18:32Z</time>
      </trkpt>
      <trkpt lat="44.51302" lon="3.99947">
        <ele>1034</ele>
        <time>2014-05-01T10:19:07Z</time>
      </trkpt>
      <trkpt lat="44.5132" lon="3.99946">
        <ele>1036</ele>
        <time>2014-05-01T10:19:26Z</time>
      </trkpt>
      <trkpt lat="44.51337" lon="3.99942">
        <ele>1037</ele>
        <time>2014-05-01T10:19:49Z</time>
      </trkpt>
      <trkpt lat="44.51338" lon="3.99943">
        <ele>1037</ele>
        <time>2014-05-01T10:19:50Z</time>
      </trkpt>
      <trkpt lat="44.51371" lon="3.99953">
        <ele>1040</ele>
        <time>2014-05-01T10:20:28Z</time>
      </trkpt>
      <trkpt lat="44.51389" lon="3.99953">
        <ele>1040</ele>
        <time>2014-05-01T10:20:49Z</time>
      </trkpt>
      <trkpt lat="44.51406" lon="3.9995">
        <ele>1040</ele>
        <time>2014-05-01T10:21:11Z</time>
      </trkpt>
      <trkpt lat="44.51407" lon="3.99949">
        <ele>1040</ele>
        <time>2014-05-01T10:21:12Z</time>
      </trkpt>
      <trkpt lat="44.5144" lon="3.99955">
        <ele>1042</ele>
        <time>2014-05-01T10:21:48Z</time>
      </trkpt>
      <trkpt lat="44.51457" lon="3.99962">
        <ele>1045</ele>
        <time>2014-05-01T10:22:07Z</time>
      </trkpt>
      <trkpt lat="44.51474" lon="3.9997">
        <ele>1042</ele>
        <time>2014-05-01T10:22:28Z</time>
      </trkpt>
      <trkpt lat="44.51475" lon="3.9997">
        <ele>1042</ele>
        <time>2014-05-01T10:22:29Z</time>
      </trkpt>
      <trkpt lat="44.51506" lon="3.99985">
        <ele>1043</ele>
        <time>2014-05-01T10:23:03Z</time>
      </trkpt>
      <trkpt lat="44.51523" lon="3.99994">
        <ele>1047</ele>
        <time>2014-05-01T10:23:32Z</time>
      </trkpt>
      <trkpt lat="44.51524" lon="3.99995">
        <ele>1048</ele>
        <time>2014-05-01T10:23:33Z</time>
      </trkpt>
      <trkpt lat="44.51557" lon="4.00005">
        <ele>1049</ele>
        <time>2014-05-01T10:24:19Z</time>
      </trkpt>
      <trkpt lat="44.51575" lon="4.0001">
        <ele>1053</ele>
        <time>2014-05-01T10:24:37Z</time>
      </trkpt>
      <trkpt lat="44.51575" lon="4.0001">
        <ele>1053</ele>
        <time>2014-05-01T10:24:38Z</time>
      </trkpt>
      <trkpt lat="44.51609" lon="4.00024">
        <ele>1048</ele>
        <time>2014-05-01T10:25:12Z</time>
      </trkpt>
      <trkpt lat="44.51625" lon="4.00033">
        <ele>1047</ele>
        <time>2014-05-01T10:25:29Z</time>
      </trkpt>
      <trkpt lat="44.5164" lon="4.00048">
        <ele>1046</ele>
        <time>2014-05-01T10:25:46Z</time>
      </trkpt>
      <trkpt lat="44.5164" lon="4.00048">
        <ele>1046</ele>
        <time>2014-05-01T10:25:47Z</time>
      </trkpt>
      <trkpt lat="44.51667" lon="4.00079">
        <ele>1046</ele>
        <time>2014-05-01T10:26:20Z</time>
      </trkpt>
      <trkpt lat="44.51681" lon="4.00095">
        <ele>1044</ele>
        <time>2014-05-01T10:26:37Z</time>
      </trkpt>
      <trkpt lat="44.51693" lon="4.00112">
        <ele>1043</ele>
        <time>2014-05-01T10:26:55Z</time>
      </trkpt>
      <trkpt lat="44.51694" lon="4.00113">
        <ele>1043</ele>
        <time>2014-05-01T10:26:56Z</time>
      </trkpt>
      <trkpt lat="44.51724" lon="4.00132">
        <ele>1044</ele>
        <time>2014-05-01T10:27:27Z</time>
      </trkpt>
      <trkpt lat="44.51739" lon="4.00146">
        <ele>1044</ele>
        <time>2014-05-01T10:27:42Z</time>
      </trkpt>
      <trkpt lat="44.51754" lon="4.0016">
        <ele>1044</ele>
        <time>2014-05-01T10:27:58Z</time>
      </trkpt>
      <trkpt lat="44.51755" lon="4.00161">
        <ele>1044</ele>
        <time>2014-05-01T10:27:59Z</time>
      </trkpt>
      <trkpt lat="44.51783" lon="4.00189">
        <ele>1045</ele>
        <time>2014-05-01T10:28:36Z</time>
      </trkpt>
      <trkpt lat="44.51797" lon="4.00203">
        <ele>1046</ele>
        <time>2014-05-01T10:28:52Z</time>
      </trkpt>
      <trkpt lat="44.51813" lon="4.00214">
        <ele>1048</ele>
        <time>2014-05-01T10:29:07Z</time>
      </trkpt>
      <trkpt lat="44.51813" lon="4.00215">
        <ele>1048</ele>
        <time>2014-05-01T10:29:08Z</time>
      </trkpt>
      <trkpt lat="44.51841" lon="4.00242">
        <ele>1050</ele>
        <time>2014-05-01T10:29:43Z</time>
      </trkpt>
      <trkpt lat="44.51858" lon="4.0025">
        <ele>1050</ele>
        <time>2014-05-01T10:30:01Z</time>
      </trkpt>
      <trkpt lat="44.51876" lon="4.00252">
        <ele>1050</ele>
        <time>2014-05-01T10:30:20Z</time>
      </trkpt>
      <trkpt lat="44.51876" lon="4.00252">
        <ele>1050</ele>
        <time>2014-05-01T10:30:21Z</time>
      </trkpt>
      <trkpt lat="44.5191" lon="4.00256">
        <ele>1048</ele>
        <time>2014-05-01T10:30:53Z</time>
      </trkpt>
      <trkpt lat="44.51925" lon="4.00271">
        <ele>1050</ele>
        <time>2014-05-01T10:31:11Z</time>
      </trkpt>
      <trkpt lat="44.5194" lon="4.00284">
        <ele>1049</ele>
        <time>2014-05-01T10:31:29Z</time>
      </trkpt>
      <trkpt lat="44.51941" lon="4.00284">
        <ele>1049</ele>
        <time>2014-05-01T10:31:30Z</time>
      </trkpt>
      <trkpt lat="44.51972" lon="4.00305">
        <ele>1047</ele>
        <time>2014-05-01T10:32:00Z</time>
      </trkpt>
      <trkpt lat="44.51988" lon="4.00311">
        <ele>1046</ele>
        <time>2014-05-01T10:32:15Z</time>
      </trkpt>
      <trkpt lat="44.52005" lon="4.0032">
        <ele>1046</ele>
        <time>2014-05-01T10:32:30Z</time>
      </trkpt>
      <trkpt lat="44.52019" lon="4.00334">
        <ele>1046</ele>
        <time>2014-05-01T10:32:45Z</time>
      </trkpt>
      <trkpt lat="44.5202" lon="4.00335">
        <ele>1046</ele>
        <time>2014-05-01T10:32:46Z</time>
      </trkpt>
      <trkpt lat="44.52046" lon="4.00367">
        <ele>1048</ele>
        <time>2014-05-01T10:33:17Z</time>
      </trkpt>
      <trkpt lat="44.52058" lon="4.00385">
        <ele>1049</ele>
        <time>2014-05-01T10:33:33Z</time>
      </trkpt>
      <trkpt lat="44.5207" lon="4.00401">
        <ele>1050</ele>
        <time>2014-05-01T10:33:48Z</time>
      </trkpt>
      <trkpt lat="44.52071" lon="4.00402">
        <ele>1050</ele>
        <time>2014-05-01T10:33:49Z</time>
      </trkpt>
      <trkpt lat="44.52096" lon="4.00436">
        <ele>1050</ele>
        <time>2014-05-01T10:34:20Z</time>
      </trkpt>
      <trkpt lat="44.52108" lon="4.00453">
        <ele>1048</ele>
        <time>2014-05-01T10:34:36Z</time>
      </trkpt>
      <trkpt lat="44.5212" lon="4.00471">
        <ele>1047</ele>
        <time>2014-05-01T10:34:52Z</time>
      </trkpt>
      <trkpt lat="44.52121" lon="4.00472">
        <ele>1046</ele>
        <time>2014-05-01T10:34:53Z</time>
      </trkpt>
      <trkpt lat="44.52146" lon="4.00503">
        <ele>1045</ele>
        <time>2014-05-01T10:35:27Z</time>
      </trkpt>
      <trkpt lat="44.52164" lon="4.00508">
        <ele>1046</ele>
        <time>2014-05-01T10:35:46Z</time>
      </trkpt>
      <trkpt lat="44.52181" lon="4.00507">
        <ele>1048</ele>
        <time>2014-05-01T10:36:06Z</time>
      </trkpt>
      <trkpt lat="44.52182" lon="4.00506">
        <ele>1048</ele>
        <time>2014-05-01T10:36:07Z</time>
      </trkpt>
      <trkpt lat="44.52216" lon="4.00498">
        <ele>1038</ele>
        <time>2014-05-01T10:36:41Z</time>
      </trkpt>
      <trkpt lat="44.52232" lon="4.00501">
        <ele>1036</ele>
        <time>2014-05-01T10:36:56Z</time>
      </trkpt>
      <trkpt lat="44.52249" lon="4.00506">
        <ele>1035</ele>
        <time>2014-05-01T10:37:10Z</time>
      </trkpt>
      <trkpt lat="44.52251" lon="4.00506">
        <ele>1035</ele>
        <time>2014-05-01T10:37:11Z</time>
      </trkpt>
      <trkpt lat="44.52282" lon="4.00523">
        <ele>1034</ele>
        <time>2014-05-01T10:37:41Z</time>
      </trkpt>
      <trkpt lat="44.52298" lon="4.00518">
        <ele>1030</ele>
        <time>2014-05-01T10:38:00Z</time>
      </trkpt>
      <trkpt lat="44.52315" lon="4.00525">
        <ele>1030</ele>
        <time>2014-05-01T10:38:15Z</time>
      </trkpt>
      <trkpt lat="44.52316" lon="4.00526">
        <ele>1029</ele>
        <time>2014-05-01T10:38:16Z</time>
      </trkpt>
      <trkpt lat="44.52348" lon="4.00537">
        <ele>1030</ele>
        <time>2014-05-01T10:38:47Z</time>
      </trkpt>
      <trkpt lat="44.52363" lon="4.00524">
        <ele>1030</ele>
        <time>2014-05-01T10:39:10Z</time>
      </trkpt>
      <trkpt lat="44.5238" lon="4.00523">
        <ele>1019</ele>
        <time>2014-05-01T10:39:32Z</time>
      </trkpt>
      <trkpt lat="44.52381" lon="4.00523">
        <ele>1019</ele>
        <time>2014-05-01T10:39:33Z</time>
      </trkpt>
      <trkpt lat="44.52411" lon="4.00542">
        <ele>1040</ele>
        <time>2014-05-01T10:42:03Z</time>
      </trkpt>
      <trkpt lat="44.52411" lon="4.00543">
        <ele>1040</ele>
        <time>2014-05-01T10:42:04Z</time>
      </trkpt>
    </trkseg>
  </trk>
</gpx>